Time;durP1;ratioP1;P1;durP2;ratioP2;P2;SDS_P1;SDS_P2;PMS_P1;PMS_P2;Temp;Humidity;BMP_temperature;BMP_pressure;BME280_temperature;BME280_humidity;BME280_pressure;Samples;Min_cycle;Max_cycle;Signal;HPM_P1;HPM_P2
2021/07/01 00:01:13;;;;;;;18.37;12.63;;;;;;;17.76;93.86;94053.36;1743929;80;21124;-57
2021/07/01 00:03:40;;;;;;;22.10;11.73;;;;;;;17.79;93.91;94052.98;1730032;80;21169;-58
2021/07/01 00:06:07;;;;;;;21.52;12.35;;;;;;;17.78;93.59;94041.70;1729138;81;20985;-58
2021/07/01 00:08:34;;;;;;;17.62;11.63;;;;;;;17.77;93.81;94041.58;1712673;82;21002;-58
2021/07/01 00:11:01;;;;;;;17.27;11.57;;;;;;;17.82;94.06;94042.22;1724009;81;21232;-58
2021/07/01 00:13:27;;;;;;;17.87;12.50;;;;;;;17.89;94.19;94041.67;1709272;82;21014;-58
2021/07/01 00:15:55;;;;;;;23.90;14.50;;;;;;;17.92;93.77;94040.03;1719426;82;21072;-58
2021/07/01 00:18:21;;;;;;;21.05;12.75;;;;;;;17.95;93.79;94031.27;1709093;82;20986;-58
2021/07/01 00:20:48;;;;;;;18.00;12.13;;;;;;;17.97;93.60;94031.55;1722720;82;21033;-58
2021/07/01 00:23:15;;;;;;;19.70;12.23;;;;;;;17.98;93.50;94024.06;1752803;80;21006;-57
2021/07/01 00:25:42;;;;;;;21.62;13.68;;;;;;;17.99;93.60;94027.61;1748574;80;21080;-58
2021/07/01 00:28:08;;;;;;;19.90;12.45;;;;;;;17.96;93.50;94024.44;1765165;80;21114;-59
2021/07/01 00:30:35;;;;;;;17.62;10.95;;;;;;;17.94;93.50;94028.37;1757727;80;20985;-58
2021/07/01 00:33:02;;;;;;;20.08;11.05;;;;;;;17.90;93.26;94029.28;1768437;80;20969;-58
2021/07/01 00:35:29;;;;;;;18.27;11.33;;;;;;;17.84;93.37;94025.12;1757249;80;21194;-58
2021/07/01 00:37:55;;;;;;;20.70;9.90;;;;;;;17.80;93.32;94026.02;1749723;80;21081;-58
2021/07/01 00:40:22;;;;;;;25.92;13.75;;;;;;;17.74;93.42;94014.16;1759055;80;21556;-58
2021/07/01 00:42:51;;;;;;;18.25;13.08;;;;;;;17.67;93.68;94000.02;1751343;81;20920;-58
2021/07/01 00:45:18;;;;;;;22.13;12.60;;;;;;;17.63;93.70;93999.53;1753811;80;21001;-58
2021/07/01 00:47:45;;;;;;;19.07;11.70;;;;;;;17.60;94.09;93997.74;1748178;80;21560;-58
2021/07/01 00:50:13;;;;;;;22.13;12.05;;;;;;;17.60;94.08;93992.17;1770815;80;21025;-58
2021/07/01 00:52:39;;;;;;;14.47;9.68;;;;;;;17.58;93.99;93993.33;1763377;80;21128;-58
2021/07/01 00:55:08;;;;;;;19.73;12.50;;;;;;;17.50;93.98;93985.39;1753635;80;20995;-58
2021/07/01 00:57:34;;;;;;;15.88;11.08;;;;;;;17.43;94.21;93994.27;1763268;80;21034;-58
2021/07/01 01:00:11;;;;;;;27.05;11.35;;;;;;;17.39;94.58;93977.07;1774433;80;20938;-58
2021/07/01 01:02:34;;;;;;;20.82;12.60;;;;;;;17.35;94.50;93970.40;1749132;80;21026;-58
2021/07/01 01:05:02;;;;;;;18.67;12.58;;;;;;;17.32;94.54;93970.63;1742719;80;21125;-57
2021/07/01 01:07:29;;;;;;;19.85;11.95;;;;;;;17.32;95.09;93969.23;1755088;80;21022;-58
2021/07/01 01:09:55;;;;;;;17.30;12.65;;;;;;;17.38;95.28;93960.27;1750485;80;21056;-58
2021/07/01 01:12:23;;;;;;;17.20;12.35;;;;;;;17.41;95.32;93953.06;1754112;81;21080;-57
2021/07/01 01:14:49;;;;;;;28.83;15.88;;;;;;;17.43;95.14;93949.78;1749073;80;21034;-58
2021/07/01 01:17:17;;;;;;;21.37;14.03;;;;;;;17.42;95.13;93940.66;1756133;80;21541;-58
2021/07/01 01:19:44;;;;;;;26.07;13.90;;;;;;;17.43;95.30;93941.44;1761184;80;21061;-58
2021/07/01 01:22:11;;;;;;;26.90;14.83;;;;;;;17.46;95.27;93937.62;1753332;80;21041;-58
2021/07/01 01:24:39;;;;;;;26.95;14.53;;;;;;;17.48;95.12;93932.31;1745870;81;21055;-58
2021/07/01 01:27:06;;;;;;;28.80;13.55;;;;;;;17.52;95.21;93934.19;1747806;81;20951;-58
2021/07/01 01:29:33;;;;;;;26.82;12.80;;;;;;;17.55;94.98;93938.72;1752635;81;23134;-57
2021/07/01 01:32:02;;;;;;;18.73;10.75;;;;;;;17.54;94.65;93949.73;1755023;81;20978;-58
2021/07/01 01:34:29;;;;;;;27.55;11.48;;;;;;;17.46;94.09;93938.38;1728271;80;21069;-57
2021/07/01 01:36:56;;;;;;;24.40;12.70;;;;;;;17.34;94.05;93948.66;1761030;80;21065;-57
2021/07/01 01:39:24;;;;;;;26.90;14.25;;;;;;;17.26;94.34;93950.42;1751958;80;21000;-58
2021/07/01 01:42:02;;;;;;;36.05;14.78;;;;;;;17.18;94.59;93940.45;1742067;81;21132;-57
2021/07/01 01:44:30;;;;;;;23.22;12.98;;;;;;;17.17;94.90;93939.56;1750397;81;20986;-56
2021/07/01 01:46:57;;;;;;;20.30;12.98;;;;;;;17.19;95.11;93937.03;1747421;80;21111;-58
2021/07/01 01:49:24;;;;;;;25.75;14.83;;;;;;;17.25;95.42;93927.41;1766252;80;21110;-58
2021/07/01 01:51:52;;;;;;;20.75;14.80;;;;;;;17.30;95.24;93931.45;1741957;82;21045;-58
2021/07/01 01:54:19;;;;;;;23.42;14.23;;;;;;;17.31;95.09;93946.22;1741130;81;22136;-58
2021/07/01 01:56:46;;;;;;;20.77;12.73;;;;;;;17.32;94.86;93944.20;1742921;81;21009;-58
2021/07/01 01:59:16;;;;;;;18.48;12.58;;;;;;;17.33;95.11;93943.70;1741162;82;21053;-58
2021/07/01 02:02:01;;;;;;;20.27;11.73;;;;;;;17.37;94.93;93944.84;1741558;81;21131;-57
2021/07/01 02:04:35;;;;;;;27.07;15.60;;;;;;;17.39;94.66;93935.36;1733527;81;20990;-58
2021/07/01 02:07:03;;;;;;;22.55;14.18;;;;;;;17.39;94.32;93947.88;1750059;81;21138;-58
2021/07/01 02:09:47;;;;;;;24.60;13.72;;;;;;;17.34;94.10;93962.55;1741004;81;21037;-58
2021/07/01 02:12:14;;;;;;;24.85;13.48;;;;;;;17.26;93.86;93958.77;1737970;81;21093;-58
2021/07/01 02:14:43;;;;;;;22.82;14.07;;;;;;;17.18;93.92;93962.69;1741592;81;21023;-58
2021/07/01 02:17:15;;;;;;;28.52;17.70;;;;;;;17.14;94.39;93961.43;1735583;82;21022;-57
2021/07/01 02:19:43;;;;;;;29.32;16.75;;;;;;;17.14;94.47;93957.27;1739793;82;22319;-58
2021/07/01 02:22:09;;;;;;;31.65;14.93;;;;;;;17.14;94.86;93953.09;1738184;81;21081;-58
2021/07/01 02:24:38;;;;;;;24.37;14.78;;;;;;;17.16;94.70;93947.16;1736415;82;21033;-58
2021/07/01 02:27:05;;;;;;;20.52;14.10;;;;;;;17.21;94.67;93942.83;1735316;82;21015;-58
2021/07/01 02:29:33;;;;;;;44.10;16.77;;;;;;;17.25;94.31;93923.24;1734620;81;21043;-58
2021/07/01 02:32:06;;;;;;;27.52;15.18;;;;;;;17.26;93.89;93921.23;1761790;80;21141;-58
2021/07/01 02:34:39;;;;;;;23.60;14.45;;;;;;;17.17;93.35;93921.49;1759200;80;20962;-58
2021/07/01 02:37:23;;;;;;;18.12;12.33;;;;;;;17.08;93.53;93921.13;1760517;80;20990;-58
2021/07/01 02:39:51;;;;;;;22.37;13.25;;;;;;;17.01;93.44;93911.16;1750282;80;21474;-58
2021/07/01 02:42:20;;;;;;;23.27;13.83;;;;;;;16.97;93.43;93912.06;1765972;80;20926;-58
2021/07/01 02:44:46;;;;;;;23.27;14.05;;;;;;;16.95;93.33;93907.66;1770167;80;21165;-59
2021/07/01 02:47:31;;;;;;;28.35;12.23;;;;;;;16.93;93.18;93916.48;1773705;80;20974;-56
2021/07/01 02:49:58;;;;;;;24.02;12.33;;;;;;;16.90;92.82;93919.54;1769790;80;20999;-57
2021/07/01 02:52:26;;;;;;;18.07;12.65;;;;;;;16.84;93.20;93927.88;1778639;80;21044;-56
2021/07/01 02:54:54;;;;;;;20.75;12.78;;;;;;;16.81;93.32;93938.62;1756427;80;21555;-57
2021/07/01 02:57:21;;;;;;;19.52;11.88;;;;;;;16.80;93.36;93946.05;1765310;80;21085;-58
2021/07/01 02:59:53;;;;;;;24.40;13.28;;;;;;;16.78;93.68;93947.20;1743365;80;21032;-60
2021/07/01 03:02:21;;;;;;;36.68;12.63;;;;;;;16.78;93.92;93940.25;1753201;80;20957;-59
2021/07/01 03:04:50;;;;;;;20.30;11.85;;;;;;;16.81;94.37;93935.06;1724805;82;21022;-58
2021/07/01 03:07:17;;;;;;;21.73;11.57;;;;;;;16.84;94.44;93929.88;1697651;82;21548;-60
2021/07/01 03:09:44;;;;;;;21.80;12.18;;;;;;;16.86;94.51;93930.12;1742426;82;21089;-59
2021/07/01 03:12:11;;;;;;;19.92;12.78;;;;;;;16.86;94.54;93938.46;1695728;80;21120;-59
2021/07/01 03:14:39;;;;;;;24.43;11.45;;;;;;;16.83;94.55;93949.98;1752506;80;21096;-59
2021/07/01 03:17:07;;;;;;;14.38;11.03;;;;;;;16.83;94.58;93954.14;1754797;80;22328;-60
2021/07/01 03:19:34;;;;;;;17.37;11.63;;;;;;;16.82;94.33;93954.64;1757052;81;20971;-59
2021/07/01 03:22:12;;;;;;;16.42;11.63;;;;;;;16.83;94.58;93953.38;1687557;84;21223;-57
2021/07/01 03:24:39;;;;;;;22.48;10.45;;;;;;;16.87;94.59;93953.25;1721376;82;21082;-57
2021/07/01 03:27:06;;;;;;;33.50;11.35;;;;;;;16.90;94.12;93966.77;1766757;80;21175;-56
2021/07/01 03:29:33;;;;;;;28.47;11.93;;;;;;;16.88;93.96;93964.48;1761366;80;20992;-58
2021/07/01 03:32:00;;;;;;;20.52;10.08;;;;;;;16.88;94.13;93963.75;1764272;80;21014;-55
2021/07/01 03:34:27;;;;;;;17.48;11.18;;;;;;;16.87;94.06;93970.56;1769756;80;21199;-52
2021/07/01 03:36:54;;;;;;;16.05;10.03;;;;;;;16.84;94.16;93989.61;1767023;80;21095;-54
2021/07/01 03:39:32;;;;;;;18.02;11.03;;;;;;;16.82;94.25;94026.25;1768618;80;21402;-53
2021/07/01 03:42:05;;;;;;;15.57;9.60;;;;;;;16.77;94.27;94053.38;1756047;80;21021;-54
2021/07/01 03:44:32;;;;;;;13.13;8.98;;;;;;;16.72;94.62;94028.39;1754597;80;21013;-52
2021/07/01 03:46:58;;;;;;;18.27;9.20;;;;;;;16.73;95.25;94007.69;1771480;80;21481;-54
2021/07/01 03:49:26;;;;;;;11.03;8.80;;;;;;;16.76;95.72;94010.84;1755267;80;21033;-54
2021/07/01 03:52:11;;;;;;;13.18;8.78;;;;;;;16.82;95.96;94003.25;1762215;80;21080;-54
2021/07/01 03:54:39;;;;;;;14.18;9.65;;;;;;;16.89;96.65;94045.84;1766433;80;21105;-55
2021/07/01 03:57:08;;;;;;;17.60;11.33;;;;;;;16.99;96.80;94054.03;1732109;81;21105;-54
2021/07/01 03:59:38;;;;;;;14.90;10.43;;;;;;;17.04;96.65;94044.31;1730247;82;21129;-55
2021/07/01 04:02:23;;;;;;;15.78;10.30;;;;;;;17.05;96.61;94057.56;1731678;80;21028;-57
2021/07/01 04:04:49;;;;;;;15.40;9.70;;;;;;;17.08;96.89;94032.95;1718132;81;21434;-55
2021/07/01 04:07:16;;;;;;;13.43;9.38;;;;;;;17.12;96.84;94036.23;1730194;82;21011;-54
2021/07/01 04:09:44;;;;;;;13.55;9.73;;;;;;;17.16;97.06;94034.72;1706439;82;21125;-54
2021/07/01 04:12:30;;;;;;;10.38;9.00;;;;;;;17.23;97.28;94036.98;1729495;82;21135;-53
2021/07/01 04:15:16;;;;;;;16.10;10.25;;;;;;;17.35;97.51;94057.98;1709067;82;21007;-52
2021/07/01 04:18:12;;;;;;;13.62;10.43;;;;;;;17.46;97.46;94072.51;1724434;82;21430;-55
2021/07/01 04:20:55;;;;;;;16.25;11.18;;;;;;;17.51;97.05;94074.52;1674008;83;21064;-55
2021/07/01 04:23:40;;;;;;;11.63;9.23;;;;;;;17.52;96.53;94068.46;1711638;82;21033;-54
2021/07/01 04:28:34;;;;;;;12.73;10.38;;;;;;;17.66;96.29;94056.28;1771257;79;27836;-54
2021/07/01 04:31:02;;;;;;;14.73;10.68;;;;;;;17.67;96.11;94056.40;1731783;81;20911;-57
2021/07/01 04:33:40;;;;;;;13.68;9.90;;;;;;;17.67;95.80;94050.09;1728072;81;21182;-56
2021/07/01 04:36:07;;;;;;;15.40;9.30;;;;;;;17.70;95.73;94058.80;1728408;82;20964;-54
2021/07/01 04:38:36;;;;;;;11.65;8.98;;;;;;;17.70;95.55;94069.31;1718366;81;21053;-54
2021/07/01 04:41:03;;;;;;;12.70;9.48;;;;;;;17.69;95.72;94082.33;1706602;83;21057;-55
2021/07/01 04:43:31;;;;;;;13.32;8.98;;;;;;;17.73;95.73;94090.55;1707975;82;21535;-55
2021/07/01 04:45:58;;;;;;;12.55;9.98;;;;;;;17.77;95.68;94097.23;1705619;83;21201;-55
2021/07/01 04:48:25;;;;;;;15.68;10.43;;;;;;;17.80;95.40;94105.32;1711895;83;20981;-55
2021/07/01 04:50:52;;;;;;;14.83;9.15;;;;;;;17.82;95.43;94128.48;1717121;82;20993;-54
2021/07/01 04:53:39;;;;;;;15.28;8.55;;;;;;;17.81;95.65;94134.66;1715845;83;20982;-55
2021/07/01 04:56:25;;;;;;;15.70;8.80;;;;;;;17.81;95.93;94131.88;1701466;83;21108;-53
2021/07/01 04:58:57;;;;;;;15.38;8.95;;;;;;;17.87;96.04;94126.31;1701768;83;21541;-53
2021/07/01 05:01:42;;;;;;;18.92;8.65;;;;;;;17.88;95.84;94132.00;1699579;83;21002;-54
2021/07/01 05:04:28;;;;;;;13.85;9.63;;;;;;;17.89;95.96;94141.25;1702434;83;21034;-54
2021/07/01 05:06:55;;;;;;;12.05;8.08;;;;;;;17.89;95.28;94136.30;1704429;83;20986;-55
2021/07/01 05:09:22;;;;;;;15.20;7.85;;;;;;;17.84;95.13;94128.08;1683569;83;21179;-55
2021/07/01 05:11:51;;;;;;;12.88;9.18;;;;;;;17.84;95.23;94117.59;1710782;83;21373;-55
2021/07/01 05:14:18;;;;;;;10.30;8.13;;;;;;;17.83;95.52;94113.30;1712897;83;21038;-54
2021/07/01 05:16:47;;;;;;;11.83;7.95;;;;;;;17.86;95.79;94115.06;1713316;83;21041;-55
2021/07/01 05:19:14;;;;;;;10.32;8.30;;;;;;;17.90;96.24;94127.45;1716011;82;21026;-54
2021/07/01 05:21:52;;;;;;;18.40;10.43;;;;;;;17.96;96.40;94135.77;1716490;81;20998;-53
2021/07/01 05:24:37;;;;;;;10.13;9.08;;;;;;;17.99;95.90;94129.21;1708594;82;21157;-55
2021/07/01 05:27:23;;;;;;;13.75;8.05;;;;;;;17.92;95.98;94131.11;1703541;83;21099;-55
2021/07/01 05:30:10;;;;;;;15.08;7.62;;;;;;;17.90;96.35;94133.64;1686772;83;21057;-54
2021/07/01 05:32:55;;;;;;;8.83;7.40;;;;;;;17.93;96.29;94134.02;1670726;82;21478;-56
2021/07/01 05:35:30;;;;;;;10.75;6.55;;;;;;;17.96;96.31;94121.23;1672236;83;21022;-55
2021/07/01 05:37:58;;;;;;;14.10;7.92;;;;;;;18.00;96.10;94112.63;1698717;82;21178;-57
2021/07/01 05:40:26;;;;;;;13.45;8.25;;;;;;;18.08;96.40;94103.25;1688102;82;21001;-55
2021/07/01 05:42:53;;;;;;;11.97;8.28;;;;;;;18.13;96.05;94098.28;1698705;82;21014;-55
2021/07/01 05:45:20;;;;;;;10.88;7.37;;;;;;;18.18;95.98;94085.63;1701767;82;21106;-55
2021/07/01 05:47:47;;;;;;;12.35;8.60;;;;;;;18.24;96.09;94084.34;1673810;82;21084;-55
2021/07/01 05:50:14;;;;;;;10.90;8.63;;;;;;;18.31;95.80;94084.56;1678144;81;21369;-55
2021/07/01 05:52:48;;;;;;;8.88;7.67;;;;;;;18.32;95.35;94090.25;1693103;82;21051;-59
2021/07/01 05:55:11;;;;;;;12.95;8.15;;;;;;;18.31;95.24;94092.92;1673113;83;21170;-56
2021/07/01 05:57:38;;;;;;;16.37;9.58;;;;;;;18.28;95.24;94084.20;1682269;84;21022;-58
2021/07/01 06:00:07;;;;;;;15.95;8.23;;;;;;;18.30;95.49;94085.83;1682325;82;21011;-57
2021/07/01 06:02:35;;;;;;;12.82;8.65;;;;;;;18.34;95.29;94070.26;1682731;83;22406;-58
2021/07/01 06:05:03;;;;;;;9.68;7.03;;;;;;;18.39;94.62;94061.88;1693488;81;21029;-58
2021/07/01 06:07:39;;;;;;;14.03;7.70;;;;;;;18.47;94.23;94069.06;1683410;82;21088;-56
2021/07/01 06:10:08;;;;;;;11.20;7.58;;;;;;;18.49;94.74;94071.44;1682934;81;21069;-57
2021/07/01 06:12:35;;;;;;;13.70;9.88;;;;;;;18.55;94.35;94076.37;1691078;82;21001;-53
2021/07/01 06:15:02;;;;;;;74.30;44.23;;;;;;;18.53;94.29;94073.97;1691287;81;21521;-58
2021/07/01 06:17:33;;;;;;;11.53;8.58;;;;;;;18.56;94.27;94076.48;1657556;83;21096;-57
2021/07/01 06:20:06;;;;;;;9.80;7.95;;;;;;;18.60;93.99;94067.22;1668508;83;21639;-55
2021/07/01 06:22:33;;;;;;;16.62;9.00;;;;;;;18.66;93.57;94059.57;1678488;83;21599;-57
2021/07/01 06:25:01;;;;;;;12.60;7.50;;;;;;;18.75;93.31;94048.75;1663833;83;21097;-56
2021/07/01 06:30:07;;;;;;;11.50;6.42;;;;;;;18.74;93.22;94046.62;1690855;82;21070;-56
2021/07/01 06:32:38;;;;;;;8.15;6.15;;;;;;;18.72;93.36;94040.81;1673894;84;21962;-61
2021/07/01 06:35:02;;;;;;;7.37;6.30;;;;;;;18.70;93.53;94051.72;1678774;83;21189;-56
2021/07/01 06:37:32;;;;;;;10.35;5.70;;;;;;;18.68;93.48;94040.30;1688847;82;21348;-58
2021/07/01 06:40:17;;;;;;;5.87;4.97;;;;;;;18.73;93.52;94045.73;1689786;82;21180;-57
2021/07/01 06:43:03;;;;;;;12.80;5.97;;;;;;;18.75;93.40;94046.73;1670810;83;20891;-58
2021/07/01 06:45:49;;;;;;;17.70;9.80;;;;;;;18.85;93.24;94041.61;1695461;82;21949;-57
2021/07/01 06:48:36;;;;;;;9.00;5.08;;;;;;;18.92;93.10;94032.05;1676714;82;21120;-59
2021/07/01 06:51:08;;;;;;;10.15;5.55;;;;;;;18.97;93.55;94032.64;1690188;81;21767;-57
2021/07/01 06:53:54;;;;;;;9.75;4.45;;;;;;;19.04;93.05;94034.86;1666167;83;21215;-59
2021/07/01 06:56:39;;;;;;;5.57;4.50;;;;;;;19.08;92.18;94040.94;1654569;84;21172;-60
2021/07/01 06:59:06;;;;;;;9.53;4.85;;;;;;;19.08;91.16;94036.75;1664159;83;21102;-63
2021/07/01 07:01:33;;;;;;;20.12;17.98;;;;;;;19.15;91.18;94024.28;1677968;83;21092;-62
2021/07/01 07:04:00;;;;;;;7.12;5.65;;;;;;;19.23;90.62;94012.03;1649559;83;22545;-63
2021/07/01 07:06:28;;;;;;;10.38;6.78;;;;;;;19.29;90.62;94015.55;1674071;83;21142;-65
2021/07/01 07:08:57;;;;;;;6.80;5.08;;;;;;;19.34;90.52;94012.61;1685182;82;20986;-63
2021/07/01 07:11:24;;;;;;;11.90;8.48;;;;;;;19.39;90.10;94015.97;1681832;82;21051;-60
2021/07/01 07:13:53;;;;;;;9.28;4.35;;;;;;;19.40;89.12;94008.46;1669176;84;21027;-64
2021/07/01 07:16:20;;;;;;;7.50;4.47;;;;;;;19.40;89.08;94000.74;1665365;83;21523;-65
2021/07/01 07:18:47;;;;;;;9.55;7.67;;;;;;;19.41;88.60;93996.02;1686747;81;21461;-63
2021/07/01 07:21:17;;;;;;;7.53;4.85;;;;;;;19.45;88.64;93987.37;1676081;81;21066;-67
2021/07/01 07:23:50;;;;;;;5.33;3.65;;;;;;;19.46;89.06;93971.52;1690568;82;21070;-61
2021/07/01 07:26:21;;;;;;;4.28;3.20;;;;;;;19.48;89.19;93961.98;1671305;83;21113;-63
2021/07/01 07:28:52;;;;;;;8.28;4.12;;;;;;;19.54;88.94;93947.33;1645681;84;21502;-60
2021/07/01 07:31:30;;;;;;;7.35;4.33;;;;;;;19.62;88.42;93937.73;1607393;87;21144;-61
2021/07/01 07:34:00;;;;;;;6.05;3.60;;;;;;;19.62;87.89;93935.70;1648229;85;21035;-67
2021/07/01 07:36:27;;;;;;;4.03;3.17;;;;;;;19.61;87.80;93939.78;1629937;85;21098;-62
2021/07/01 07:38:56;;;;;;;6.60;3.83;;;;;;;19.58;87.41;93940.06;1640150;84;21558;-62
2021/07/01 07:41:23;;;;;;;3.25;2.60;;;;;;;19.60;87.79;93946.61;1641089;85;21625;-65
2021/07/01 07:43:50;;;;;;;3.22;2.47;;;;;;;19.69;87.32;93946.90;1643053;84;21158;-60
2021/07/01 07:46:19;;;;;;;6.90;2.42;;;;;;;19.79;86.61;93933.48;1658836;84;21011;-61
2021/07/01 07:48:46;;;;;;;4.92;3.22;;;;;;;19.88;86.31;93919.77;1646342;84;21080;-61
2021/07/01 07:51:17;;;;;;;11.55;4.22;;;;;;;19.94;85.99;93904.45;1639357;82;21051;-62
2021/07/01 07:53:49;;;;;;;9.98;5.97;;;;;;;19.98;85.58;93897.95;1638861;85;21489;-60
2021/07/01 07:56:16;;;;;;;4.17;2.92;;;;;;;20.02;85.61;93888.66;1647397;84;21143;-62
2021/07/01 07:58:48;;;;;;;6.00;3.72;;;;;;;20.09;85.48;93884.51;1647149;86;21554;-61
2021/07/01 08:01:15;;;;;;;4.08;2.87;;;;;;;20.11;85.23;93879.88;1637052;86;26809;-61
2021/07/01 08:03:42;;;;;;;5.78;2.47;;;;;;;20.11;84.44;93857.54;1677247;83;21250;-63
2021/07/01 08:06:10;;;;;;;10.15;5.00;;;;;;;20.08;84.01;93853.02;1683499;83;21597;-62
2021/07/01 08:08:38;;;;;;;3.62;2.45;;;;;;;20.05;84.57;93849.89;1714939;82;21259;-61
2021/07/01 08:11:07;;;;;;;3.35;2.98;;;;;;;20.07;83.83;93856.36;1679129;83;21031;-57
2021/07/01 08:13:37;;;;;;;5.12;3.90;;;;;;;20.06;83.11;93866.76;1683569;82;21112;-57
2021/07/01 08:16:05;;;;;;;7.85;4.62;;;;;;;20.07;83.13;93871.72;1668303;82;21018;-58
2021/07/01 08:18:39;;;;;;;3.87;3.05;;;;;;;20.09;82.75;93874.08;1661560;83;21079;-62
2021/07/01 08:21:07;;;;;;;4.10;3.30;;;;;;;20.11;81.02;93869.37;1664017;83;21133;-61
2021/07/01 08:23:34;;;;;;;4.75;2.40;;;;;;;20.17;78.83;93870.80;1678190;82;21564;-57
2021/07/01 08:26:03;;;;;;;3.80;1.95;;;;;;;20.23;79.08;93870.80;1664226;82;21195;-57
2021/07/01 08:28:30;;;;;;;2.83;2.27;;;;;;;20.33;79.46;93873.97;1682741;83;21434;-57
2021/07/01 08:31:08;;;;;;;2.90;2.42;;;;;;;20.36;78.41;93881.30;1701374;83;21010;-59
2021/07/01 08:33:36;;;;;;;3.25;2.27;;;;;;;20.36;78.48;93863.15;1686857;83;21179;-57
2021/07/01 08:36:04;;;;;;;5.78;2.77;;;;;;;20.33;78.30;93863.55;1676908;82;20996;-55
2021/07/01 08:38:38;;;;;;;6.03;2.83;;;;;;;20.34;78.73;93873.45;1690193;83;21083;-58
2021/07/01 08:41:14;;;;;;;4.95;2.80;;;;;;;20.34;79.84;93874.10;1678721;83;21605;-60
2021/07/01 08:43:55;;;;;;;4.67;2.15;;;;;;;20.40;80.59;93882.48;1658675;82;20989;-63
2021/07/01 08:46:41;;;;;;;3.95;2.42;;;;;;;20.45;79.15;93878.88;1677015;81;21086;-62
2021/07/01 08:49:09;;;;;;;2.70;2.12;;;;;;;20.46;76.86;93881.02;1670045;82;21073;-62
2021/07/01 08:51:47;;;;;;;3.15;2.25;;;;;;;20.43;75.15;93896.05;1675834;82;21108;-57
2021/07/01 08:54:32;;;;;;;3.17;2.47;;;;;;;20.38;74.48;93907.41;1685539;82;21065;-58
2021/07/01 08:56:58;;;;;;;4.03;2.77;;;;;;;20.38;74.34;93910.87;1690964;82;21020;-54
2021/07/01 08:59:26;;;;;;;3.92;2.87;;;;;;;20.39;74.43;93905.39;1695079;82;21140;-53
2021/07/01 09:02:01;;;;;;;2.98;2.77;;;;;;;20.45;74.87;93914.44;1681245;83;21742;-56
2021/07/01 09:04:34;;;;;;;6.83;3.05;;;;;;;20.49;73.93;93912.08;1678431;83;21199;-60
2021/07/01 09:07:03;;;;;;;8.55;3.00;;;;;;;20.53;73.83;93912.55;1670821;84;21109;-61
2021/07/01 09:09:35;;;;;;;3.95;2.72;;;;;;;20.55;73.83;93919.09;1671000;83;21099;-62
2021/07/01 09:12:06;;;;;;;4.00;2.75;;;;;;;20.61;73.44;93921.81;1705312;83;21123;-61
2021/07/01 09:14:35;;;;;;;4.97;2.90;;;;;;;20.64;73.44;93922.91;1661263;83;21945;-59
2021/07/01 09:17:10;;;;;;;3.40;3.02;;;;;;;20.67;73.19;93932.25;1684446;82;21131;-68
2021/07/01 09:19:39;;;;;;;5.62;3.00;;;;;;;20.71;73.75;93941.11;1659209;83;21143;-60
2021/07/01 09:22:12;;;;;;;6.37;5.25;;;;;;;20.75;73.56;93946.48;1657650;84;21094;-59
2021/07/01 09:24:36;;;;;;;6.12;4.37;;;;;;;20.78;72.98;93945.41;1670043;82;21156;-64
2021/07/01 09:27:05;;;;;;;5.62;4.78;;;;;;;20.76;73.60;93943.06;1678988;82;22144;-57
2021/07/01 09:29:33;;;;;;;4.87;3.47;;;;;;;20.70;73.48;93938.20;1697072;81;21141;-58
2021/07/01 09:32:00;;;;;;;5.75;3.33;;;;;;;20.72;73.61;93938.42;1695618;83;21202;-56
2021/07/01 09:34:27;;;;;;;5.70;3.62;;;;;;;20.72;73.48;93937.03;1670227;83;21102;-57
2021/07/01 09:36:56;;;;;;;7.80;4.85;;;;;;;20.74;73.92;93939.38;1674502;82;21224;-54
2021/07/01 09:39:25;;;;;;;5.10;3.12;;;;;;;20.75;73.95;93933.91;1679178;81;21204;-60
2021/07/01 09:42:00;;;;;;;10.78;3.80;;;;;;;20.77;73.62;93932.72;1679111;83;21113;-58
2021/07/01 09:44:23;;;;;;;5.85;3.60;;;;;;;20.77;73.89;93941.77;1683582;82;21152;-57
2021/07/01 09:46:50;;;;;;;12.45;3.92;;;;;;;20.76;74.32;93940.27;1688502;83;21430;-60
2021/07/01 09:49:20;;;;;;;10.35;3.72;;;;;;;20.80;74.85;93955.45;1680931;83;21750;-61
2021/07/01 09:51:49;;;;;;;5.25;3.27;;;;;;;20.83;74.32;93949.42;1692624;82;21069;-62
2021/07/01 09:54:17;;;;;;;6.65;2.92;;;;;;;20.87;74.09;93963.87;1681290;83;22060;-60
2021/07/01 09:56:45;;;;;;;8.58;3.95;;;;;;;20.91;73.30;93961.53;1678907;83;21065;-57
2021/07/01 09:59:23;;;;;;;8.53;3.33;;;;;;;20.96;73.35;93962.82;1648661;84;21100;-57
2021/07/01 10:01:50;;;;;;;8.63;4.00;;;;;;;21.07;72.57;93968.25;1662531;83;21218;-60
2021/07/01 10:04:17;;;;;;;7.37;4.65;;;;;;;21.15;71.17;93954.39;1650382;84;21052;-61
2021/07/01 10:06:44;;;;;;;36.08;23.18;;;;;;;21.23;71.40;93948.27;1691017;82;21042;-58
2021/07/01 10:09:30;;;;;;;23.57;18.87;;;;;;;21.35;72.76;93950.35;1682751;83;21840;-59
2021/07/01 10:11:57;;;;;;;12.63;10.00;;;;;;;21.44;72.66;93944.33;1694551;82;21019;-60
2021/07/01 10:14:26;;;;;;;7.10;5.97;;;;;;;21.51;72.62;93937.34;1682240;83;21151;-59
2021/07/01 10:16:54;;;;;;;5.40;4.42;;;;;;;21.58;72.60;93931.85;1674231;83;21195;-62
2021/07/01 10:19:25;;;;;;;5.87;3.60;;;;;;;21.63;72.86;93935.88;1693859;83;21505;-59
2021/07/01 10:22:06;;;;;;;12.20;4.85;;;;;;;21.68;71.59;93931.55;1685376;83;21028;-58
2021/07/01 10:24:35;;;;;;;5.45;3.05;;;;;;;21.77;71.55;93934.56;1686496;83;21060;-60
2021/07/01 10:27:02;;;;;;;7.22;3.42;;;;;;;21.78;69.99;93942.44;1689496;82;21184;-59
2021/07/01 10:29:37;;;;;;;7.80;4.15;;;;;;;21.79;70.03;93940.38;1687611;83;21030;-58
2021/07/01 10:32:07;;;;;;;7.60;3.00;;;;;;;21.84;71.09;93946.53;1693413;82;21063;-60
2021/07/01 10:34:48;;;;;;;5.50;2.33;;;;;;;21.90;72.12;93945.14;1682059;83;21047;-57
2021/07/01 10:37:21;;;;;;;5.58;2.95;;;;;;;21.92;73.39;93942.55;1692381;82;21484;-58
2021/07/01 10:39:48;;;;;;;4.45;2.55;;;;;;;21.98;73.99;93941.04;1703461;82;21788;-57
2021/07/01 10:42:17;;;;;;;8.20;3.27;;;;;;;21.99;74.70;93941.88;1699495;83;21618;-57
2021/07/01 10:44:44;;;;;;;5.42;2.95;;;;;;;22.03;74.50;93944.47;1713774;81;21053;-58
2021/07/01 10:47:29;;;;;;;5.78;2.42;;;;;;;22.13;74.50;93939.91;1691563;83;21035;-57
2021/07/01 10:49:59;;;;;;;7.25;2.70;;;;;;;22.38;73.16;93946.81;1705518;83;21502;-59
2021/07/01 10:52:44;;;;;;;5.85;2.40;;;;;;;22.68;72.44;93940.79;1690205;83;21158;-60
2021/07/01 10:55:12;;;;;;;4.65;2.80;;;;;;;22.91;72.56;93944.57;1700059;83;21014;-58
2021/07/01 10:57:56;;;;;;;5.83;3.00;;;;;;;23.11;72.09;93947.42;1700564;83;21066;-61
2021/07/01 11:00:42;;;;;;;8.08;3.10;;;;;;;23.30;71.32;93952.81;1697193;83;21068;-64
2021/07/01 11:03:21;;;;;;;4.75;2.10;;;;;;;23.49;70.92;93959.73;1689085;82;21219;-56
2021/07/01 11:05:49;;;;;;;7.25;2.50;;;;;;;23.62;68.68;93958.25;1669423;85;21163;-62
2021/07/01 11:08:30;;;;;;;6.12;2.45;;;;;;;23.72;67.71;93958.50;1672215;85;21052;-59
2021/07/01 11:10:58;;;;;;;8.30;2.92;;;;;;;23.79;66.99;93959.93;1663358;82;21102;-58
2021/07/01 11:13:27;;;;;;;6.12;2.42;;;;;;;23.85;66.26;93965.44;1681482;82;21674;-60
2021/07/01 11:16:07;;;;;;;8.55;2.40;;;;;;;23.91;66.52;93968.20;1706505;82;21140;-55
2021/07/01 11:18:41;;;;;;;5.40;2.45;;;;;;;23.96;66.48;93974.31;1681965;84;21742;-58
2021/07/01 11:21:19;;;;;;;2.92;2.17;;;;;;;24.02;66.95;93978.48;1699321;82;21073;-57
2021/07/01 11:23:49;;;;;;;4.03;2.12;;;;;;;24.15;67.69;93977.61;1683057;83;21108;-58
2021/07/01 11:26:24;;;;;;;3.83;2.67;;;;;;;24.36;68.17;93988.15;1675893;82;21160;-56
2021/07/01 11:28:52;;;;;;;3.17;2.77;;;;;;;24.64;67.87;93988.88;1673324;84;21172;-59
2021/07/01 11:31:19;;;;;;;6.67;2.37;;;;;;;25.35;67.84;93992.17;1657884;84;21180;-59
2021/07/01 11:33:51;;;;;;;3.50;2.30;;;;;;;25.96;66.04;93997.30;1647401;85;21085;-59
2021/07/01 11:36:19;;;;;;;2.02;1.82;;;;;;;26.31;63.75;93997.03;1716472;82;21116;-57
2021/07/01 11:38:48;;;;;;;8.75;2.35;;;;;;;26.85;61.22;93996.31;1720331;82;21125;-61
2021/07/01 11:41:16;;;;;;;1.92;1.72;;;;;;;27.25;59.04;93984.36;1716046;83;21089;-59
2021/07/01 11:43:44;;;;;;;4.92;1.80;;;;;;;27.79;58.60;93981.30;1706636;81;21145;-57
2021/07/01 11:46:11;;;;;;;3.75;1.85;;;;;;;28.41;57.07;93983.09;1670948;83;21057;-63
2021/07/01 11:48:43;;;;;;;3.30;1.32;;;;;;;28.94;54.15;93980.44;1701100;83;21144;-58